sensor_id;sensor_type;location;lat;lon;timestamp;P1;durP1;ratioP1;P2;durP2;ratioP2
74528;SDS011;63009;52.584;5.932;2023-07-20T00:00:22;7.30;;;2.20;;
74528;SDS011;63009;52.584;5.932;2023-07-20T00:02:49;6.03;;;2.30;;
74528;SDS011;63009;52.584;5.932;2023-07-20T00:05:15;7.40;;;2.50;;
74528;SDS011;63009;52.584;5.932;2023-07-20T00:07:43;6.50;;;2.55;;
74528;SDS011;63009;52.584;5.932;2023-07-20T00:10:08;5.80;;;2.22;;
74528;SDS011;63009;52.584;5.932;2023-07-20T00:12:34;6.03;;;2.22;;
74528;SDS011;63009;52.584;5.932;2023-07-20T00:14:59;7.95;;;2.47;;
74528;SDS011;63009;52.584;5.932;2023-07-20T00:17:25;6.80;;;2.37;;
74528;SDS011;63009;52.584;5.932;2023-07-20T00:19:50;6.30;;;2.27;;
74528;SDS011;63009;52.584;5.932;2023-07-20T00:22:15;7.33;;;2.63;;
74528;SDS011;63009;52.584;5.932;2023-07-20T00:24:41;6.78;;;2.60;;
74528;SDS011;63009;52.584;5.932;2023-07-20T00:27:06;7.57;;;2.47;;
74528;SDS011;63009;52.584;5.932;2023-07-20T00:29:31;6.20;;;2.20;;
74528;SDS011;63009;52.584;5.932;2023-07-20T00:31:57;8.27;;;2.73;;
74528;SDS011;63009;52.584;5.932;2023-07-20T00:34:23;6.22;;;2.28;;
74528;SDS011;63009;52.584;5.932;2023-07-20T00:36:48;7.17;;;2.90;;
74528;SDS011;63009;52.584;5.932;2023-07-20T00:39:14;6.75;;;2.50;;
74528;SDS011;63009;52.584;5.932;2023-07-20T00:41:39;7.05;;;2.70;;
74528;SDS011;63009;52.584;5.932;2023-07-20T00:44:05;6.30;;;2.30;;
74528;SDS011;63009;52.584;5.932;2023-07-20T00:46:30;7.00;;;2.42;;
74528;SDS011;63009;52.584;5.932;2023-07-20T00:48:57;10.88;;;2.72;;
74528;SDS011;63009;52.584;5.932;2023-07-20T00:51:23;8.18;;;2.67;;
74528;SDS011;63009;52.584;5.932;2023-07-20T00:53:51;7.47;;;2.72;;
74528;SDS011;63009;52.584;5.932;2023-07-20T00:56:16;6.53;;;2.40;;
74528;SDS011;63009;52.584;5.932;2023-07-20T00:58:42;6.72;;;2.53;;
74528;SDS011;63009;52.584;5.932;2023-07-20T01:01:07;7.88;;;2.92;;
74528;SDS011;63009;52.584;5.932;2023-07-20T01:03:33;8.37;;;3.13;;
74528;SDS011;63009;52.584;5.932;2023-07-20T01:09:12;6.47;;;2.50;;
74528;SDS011;63009;52.584;5.932;2023-07-20T01:14:27;6.85;;;2.72;;
74528;SDS011;63009;52.584;5.932;2023-07-20T01:16:52;6.68;;;2.55;;
74528;SDS011;63009;52.584;5.932;2023-07-20T01:19:18;5.90;;;2.50;;
74528;SDS011;63009;52.584;5.932;2023-07-20T01:26:53;6.68;;;2.60;;
74528;SDS011;63009;52.584;5.932;2023-07-20T01:29:43;6.80;;;2.83;;
74528;SDS011;63009;52.584;5.932;2023-07-20T01:32:16;7.45;;;2.80;;
74528;SDS011;63009;52.584;5.932;2023-07-20T01:34:43;7.35;;;3.10;;
74528;SDS011;63009;52.584;5.932;2023-07-20T01:37:10;7.47;;;2.63;;
74528;SDS011;63009;52.584;5.932;2023-07-20T01:39:37;7.30;;;3.00;;
74528;SDS011;63009;52.584;5.932;2023-07-20T01:42:04;6.88;;;2.90;;
74528;SDS011;63009;52.584;5.932;2023-07-20T01:44:29;6.22;;;2.28;;
74528;SDS011;63009;52.584;5.932;2023-07-20T01:46:55;7.07;;;2.65;;
74528;SDS011;63009;52.584;5.932;2023-07-20T01:49:20;8.03;;;3.20;;
74528;SDS011;63009;52.584;5.932;2023-07-20T01:51:45;7.73;;;2.97;;
74528;SDS011;63009;52.584;5.932;2023-07-20T01:54:10;6.83;;;2.53;;
74528;SDS011;63009;52.584;5.932;2023-07-20T01:56:36;7.50;;;2.63;;
74528;SDS011;63009;52.584;5.932;2023-07-20T01:59:01;7.30;;;2.80;;
74528;SDS011;63009;52.584;5.932;2023-07-20T02:01:26;6.90;;;2.70;;
74528;SDS011;63009;52.584;5.932;2023-07-20T02:03:53;6.78;;;2.70;;
74528;SDS011;63009;52.584;5.932;2023-07-20T02:06:19;6.10;;;2.33;;
74528;SDS011;63009;52.584;5.932;2023-07-20T02:08:44;7.07;;;2.80;;
74528;SDS011;63009;52.584;5.932;2023-07-20T02:11:09;6.73;;;2.30;;
74528;SDS011;63009;52.584;5.932;2023-07-20T02:13:35;5.43;;;1.90;;
74528;SDS011;63009;52.584;5.932;2023-07-20T02:16:00;6.67;;;2.50;;
74528;SDS011;63009;52.584;5.932;2023-07-20T02:18:25;6.33;;;2.30;;
74528;SDS011;63009;52.584;5.932;2023-07-20T02:20:52;6.53;;;2.27;;
74528;SDS011;63009;52.584;5.932;2023-07-20T02:23:18;6.57;;;2.33;;
74528;SDS011;63009;52.584;5.932;2023-07-20T02:25:43;7.23;;;2.67;;
74528;SDS011;63009;52.584;5.932;2023-07-20T02:28:09;5.53;;;2.22;;
74528;SDS011;63009;52.584;5.932;2023-07-20T02:30:39;7.15;;;2.58;;
74528;SDS011;63009;52.584;5.932;2023-07-20T02:33:05;6.70;;;2.38;;
74528;SDS011;63009;52.584;5.932;2023-07-20T02:35:31;6.45;;;2.40;;
74528;SDS011;63009;52.584;5.932;2023-07-20T02:37:57;7.20;;;2.50;;
74528;SDS011;63009;52.584;5.932;2023-07-20T02:40:22;7.50;;;2.63;;
74528;SDS011;63009;52.584;5.932;2023-07-20T02:42:48;7.72;;;3.00;;
74528;SDS011;63009;52.584;5.932;2023-07-20T02:45:13;7.43;;;2.72;;
74528;SDS011;63009;52.584;5.932;2023-07-20T02:47:39;7.10;;;2.80;;
74528;SDS011;63009;52.584;5.932;2023-07-20T02:50:06;6.97;;;2.80;;
74528;SDS011;63009;52.584;5.932;2023-07-20T02:52:32;6.97;;;3.13;;
74528;SDS011;63009;52.584;5.932;2023-07-20T02:54:58;7.30;;;3.10;;
74528;SDS011;63009;52.584;5.932;2023-07-20T02:57:23;6.77;;;2.90;;
74528;SDS011;63009;52.584;5.932;2023-07-20T02:59:48;8.63;;;2.50;;
74528;SDS011;63009;52.584;5.932;2023-07-20T03:02:13;6.80;;;2.17;;
74528;SDS011;63009;52.584;5.932;2023-07-20T03:04:39;6.20;;;1.90;;
74528;SDS011;63009;52.584;5.932;2023-07-20T03:07:04;5.50;;;2.08;;
74528;SDS011;63009;52.584;5.932;2023-07-20T03:09:30;6.07;;;2.47;;
74528;SDS011;63009;52.584;5.932;2023-07-20T03:11:55;5.07;;;1.77;;
74528;SDS011;63009;52.584;5.932;2023-07-20T03:14:21;5.18;;;1.90;;
74528;SDS011;63009;52.584;5.932;2023-07-20T03:16:46;5.67;;;2.40;;
74528;SDS011;63009;52.584;5.932;2023-07-20T03:19:11;5.03;;;1.65;;
74528;SDS011;63009;52.584;5.932;2023-07-20T03:21:37;3.83;;;1.38;;
74528;SDS011;63009;52.584;5.932;2023-07-20T03:24:05;3.05;;;1.10;;
74528;SDS011;63009;52.584;5.932;2023-07-20T03:26:32;3.50;;;1.25;;
74528;SDS011;63009;52.584;5.932;2023-07-20T03:28:57;4.22;;;1.50;;
74528;SDS011;63009;52.584;5.932;2023-07-20T03:31:22;3.67;;;1.20;;
74528;SDS011;63009;52.584;5.932;2023-07-20T03:33:47;4.80;;;1.50;;
74528;SDS011;63009;52.584;5.932;2023-07-20T03:36:13;4.72;;;1.70;;
74528;SDS011;63009;52.584;5.932;2023-07-20T03:38:38;4.87;;;1.57;;
74528;SDS011;63009;52.584;5.932;2023-07-20T03:41:04;5.57;;;1.95;;
74528;SDS011;63009;52.584;5.932;2023-07-20T03:43:29;6.10;;;2.10;;
74528;SDS011;63009;52.584;5.932;2023-07-20T03:45:54;5.88;;;2.00;;
74528;SDS011;63009;52.584;5.932;2023-07-20T03:48:22;6.38;;;2.50;;
74528;SDS011;63009;52.584;5.932;2023-07-20T03:50:49;6.18;;;1.90;;
74528;SDS011;63009;52.584;5.932;2023-07-20T03:53:15;6.15;;;2.08;;
74528;SDS011;63009;52.584;5.932;2023-07-20T03:55:44;7.22;;;2.50;;
74528;SDS011;63009;52.584;5.932;2023-07-20T03:58:11;6.45;;;2.65;;
74528;SDS011;63009;52.584;5.932;2023-07-20T04:00:36;7.97;;;2.67;;
74528;SDS011;63009;52.584;5.932;2023-07-20T04:03:02;7.47;;;2.80;;
74528;SDS011;63009;52.584;5.932;2023-07-20T04:05:27;4.75;;;1.60;;
74528;SDS011;63009;52.584;5.932;2023-07-20T04:07:52;5.18;;;1.55;;
74528;SDS011;63009;52.584;5.932;2023-07-20T04:10:18;5.35;;;1.90;;
74528;SDS011;63009;52.584;5.932;2023-07-20T04:12:44;5.78;;;2.03;;
74528;SDS011;63009;52.584;5.932;2023-07-20T04:15:12;6.10;;;1.85;;
74528;SDS011;63009;52.584;5.932;2023-07-20T04:17:38;5.82;;;2.15;;
74528;SDS011;63009;52.584;5.932;2023-07-20T04:20:03;6.40;;;2.00;;
74528;SDS011;63009;52.584;5.932;2023-07-20T04:22:30;6.00;;;2.22;;
74528;SDS011;63009;52.584;5.932;2023-07-20T04:24:55;5.85;;;1.90;;
74528;SDS011;63009;52.584;5.932;2023-07-20T04:27:21;6.47;;;2.20;;
74528;SDS011;63009;52.584;5.932;2023-07-20T04:29:46;6.13;;;2.35;;
74528;SDS011;63009;52.584;5.932;2023-07-20T04:32:12;7.25;;;2.83;;
74528;SDS011;63009;52.584;5.932;2023-07-20T04:34:37;7.23;;;3.00;;
74528;SDS011;63009;52.584;5.932;2023-07-20T04:37:04;8.23;;;3.13;;
74528;SDS011;63009;52.584;5.932;2023-07-20T04:39:29;8.40;;;3.10;;
74528;SDS011;63009;52.584;5.932;2023-07-20T04:41:55;7.47;;;3.47;;
74528;SDS011;63009;52.584;5.932;2023-07-20T04:44:20;8.67;;;3.63;;
74528;SDS011;63009;52.584;5.932;2023-07-20T04:46:46;8.70;;;4.20;;
74528;SDS011;63009;52.584;5.932;2023-07-20T04:49:11;11.60;;;4.57;;
74528;SDS011;63009;52.584;5.932;2023-07-20T04:51:37;8.77;;;4.30;;
74528;SDS011;63009;52.584;5.932;2023-07-20T04:54:03;8.90;;;3.95;;
74528;SDS011;63009;52.584;5.932;2023-07-20T04:56:28;9.30;;;4.47;;
74528;SDS011;63009;52.584;5.932;2023-07-20T04:58:54;10.20;;;4.55;;
74528;SDS011;63009;52.584;5.932;2023-07-20T05:01:19;9.10;;;4.22;;
74528;SDS011;63009;52.584;5.932;2023-07-20T05:03:45;10.48;;;4.80;;
74528;SDS011;63009;52.584;5.932;2023-07-20T05:06:10;8.70;;;3.67;;
74528;SDS011;63009;52.584;5.932;2023-07-20T05:08:35;8.13;;;3.83;;
74528;SDS011;63009;52.584;5.932;2023-07-20T05:11:00;8.30;;;4.20;;
74528;SDS011;63009;52.584;5.932;2023-07-20T05:13:26;7.77;;;3.47;;
74528;SDS011;63009;52.584;5.932;2023-07-20T05:15:52;8.63;;;3.85;;
74528;SDS011;63009;52.584;5.932;2023-07-20T05:18:18;7.72;;;3.80;;
74528;SDS011;63009;52.584;5.932;2023-07-20T05:20:45;8.23;;;3.50;;
74528;SDS011;63009;52.584;5.932;2023-07-20T05:23:14;8.88;;;3.70;;
74528;SDS011;63009;52.584;5.932;2023-07-20T05:25:39;9.02;;;3.35;;
74528;SDS011;63009;52.584;5.932;2023-07-20T05:28:06;7.32;;;2.70;;
74528;SDS011;63009;52.584;5.932;2023-07-20T05:30:31;6.55;;;2.83;;
74528;SDS011;63009;52.584;5.932;2023-07-20T05:32:56;7.07;;;3.10;;
74528;SDS011;63009;52.584;5.932;2023-07-20T05:35:21;8.23;;;3.00;;
74528;SDS011;63009;52.584;5.932;2023-07-20T05:37:47;7.13;;;2.40;;
74528;SDS011;63009;52.584;5.932;2023-07-20T05:40:13;7.30;;;2.30;;
74528;SDS011;63009;52.584;5.932;2023-07-20T05:42:43;6.53;;;2.53;;
74528;SDS011;63009;52.584;5.932;2023-07-20T05:45:08;7.40;;;2.47;;
74528;SDS011;63009;52.584;5.932;2023-07-20T05:47:34;5.35;;;1.95;;
74528;SDS011;63009;52.584;5.932;2023-07-20T05:49:59;7.00;;;2.07;;
74528;SDS011;63009;52.584;5.932;2023-07-20T05:52:25;5.72;;;2.20;;
74528;SDS011;63009;52.584;5.932;2023-07-20T05:54:50;7.07;;;1.87;;
74528;SDS011;63009;52.584;5.932;2023-07-20T05:57:16;6.07;;;1.60;;
74528;SDS011;63009;52.584;5.932;2023-07-20T05:59:41;4.90;;;1.77;;
74528;SDS011;63009;52.584;5.932;2023-07-20T06:02:09;6.35;;;1.85;;
74528;SDS011;63009;52.584;5.932;2023-07-20T06:04:34;4.80;;;1.52;;
74528;SDS011;63009;52.584;5.932;2023-07-20T06:07:00;4.40;;;1.30;;
74528;SDS011;63009;52.584;5.932;2023-07-20T06:09:25;4.45;;;1.50;;
74528;SDS011;63009;52.584;5.932;2023-07-20T06:11:52;3.70;;;1.60;;
74528;SDS011;63009;52.584;5.932;2023-07-20T06:14:17;4.25;;;1.30;;
74528;SDS011;63009;52.584;5.932;2023-07-20T06:16:43;4.05;;;1.50;;
74528;SDS011;63009;52.584;5.932;2023-07-20T06:19:08;6.40;;;1.40;;
74528;SDS011;63009;52.584;5.932;2023-07-20T06:21:36;4.13;;;1.38;;
74528;SDS011;63009;52.584;5.932;2023-07-20T06:24:01;4.95;;;1.40;;
74528;SDS011;63009;52.584;5.932;2023-07-20T06:26:26;3.10;;;1.20;;
74528;SDS011;63009;52.584;5.932;2023-07-20T06:28:53;2.35;;;1.10;;
74528;SDS011;63009;52.584;5.932;2023-07-20T06:31:19;3.35;;;1.10;;
74528;SDS011;63009;52.584;5.932;2023-07-20T06:33:44;2.97;;;1.30;;
74528;SDS011;63009;52.584;5.932;2023-07-20T06:36:09;4.50;;;1.43;;
74528;SDS011;63009;52.584;5.932;2023-07-20T06:38:34;3.53;;;1.10;;
74528;SDS011;63009;52.584;5.932;2023-07-20T06:41:00;3.00;;;1.07;;
74528;SDS011;63009;52.584;5.932;2023-07-20T06:43:25;2.70;;;1.00;;
74528;SDS011;63009;52.584;5.932;2023-07-20T06:45:51;4.33;;;1.00;;
74528;SDS011;63009;52.584;5.932;2023-07-20T06:48:18;2.03;;;0.70;;
74528;SDS011;63009;52.584;5.932;2023-07-20T06:50:44;2.22;;;0.90;;
74528;SDS011;63009;52.584;5.932;2023-07-20T06:53:09;3.53;;;0.97;;
74528;SDS011;63009;52.584;5.932;2023-07-20T06:55:34;3.10;;;1.00;;
74528;SDS011;63009;52.584;5.932;2023-07-20T06:57:59;2.83;;;0.90;;
74528;SDS011;63009;52.584;5.932;2023-07-20T07:00:25;2.97;;;0.90;;
74528;SDS011;63009;52.584;5.932;2023-07-20T07:02:50;4.15;;;0.93;;
74528;SDS011;63009;52.584;5.932;2023-07-20T07:05:15;3.30;;;1.38;;
74528;SDS011;63009;52.584;5.932;2023-07-20T07:07:41;2.03;;;0.93;;
74528;SDS011;63009;52.584;5.932;2023-07-20T07:10:07;3.60;;;1.10;;
74528;SDS011;63009;52.584;5.932;2023-07-20T07:12:33;2.88;;;1.00;;
74528;SDS011;63009;52.584;5.932;2023-07-20T07:14:59;2.20;;;1.10;;
74528;SDS011;63009;52.584;5.932;2023-07-20T07:17:25;5.28;;;1.05;;
74528;SDS011;63009;52.584;5.932;2023-07-20T07:19:51;2.57;;;1.10;;
74528;SDS011;63009;52.584;5.932;2023-07-20T07:22:19;4.38;;;1.20;;
74528;SDS011;63009;52.584;5.932;2023-07-20T07:24:45;3.47;;;1.00;;
74528;SDS011;63009;52.584;5.932;2023-07-20T07:27:10;1.87;;;0.83;;
74528;SDS011;63009;52.584;5.932;2023-07-20T07:29:36;2.38;;;1.00;;
74528;SDS011;63009;52.584;5.932;2023-07-20T07:32:01;2.80;;;0.80;;
74528;SDS011;63009;52.584;5.932;2023-07-20T07:34:26;3.33;;;1.10;;
74528;SDS011;63009;52.584;5.932;2023-07-20T07:36:52;3.13;;;1.00;;
74528;SDS011;63009;52.584;5.932;2023-07-20T07:39:17;3.10;;;0.90;;
74528;SDS011;63009;52.584;5.932;2023-07-20T07:41:42;2.07;;;0.90;;
74528;SDS011;63009;52.584;5.932;2023-07-20T07:44:07;2.23;;;1.10;;
74528;SDS011;63009;52.584;5.932;2023-07-20T07:46:33;2.50;;;0.87;;
74528;SDS011;63009;52.584;5.932;2023-07-20T07:48:58;4.63;;;0.90;;
74528;SDS011;63009;52.584;5.932;2023-07-20T07:51:23;3.15;;;1.15;;
74528;SDS011;63009;52.584;5.932;2023-07-20T07:53:49;1.83;;;0.83;;
74528;SDS011;63009;52.584;5.932;2023-07-20T07:56:15;4.97;;;1.10;;
74528;SDS011;63009;52.584;5.932;2023-07-20T07:58:41;4.95;;;1.15;;
74528;SDS011;63009;52.584;5.932;2023-07-20T08:01:06;2.90;;;1.10;;
74528;SDS011;63009;52.584;5.932;2023-07-20T08:03:32;3.80;;;1.10;;
74528;SDS011;63009;52.584;5.932;2023-07-20T08:05:57;2.27;;;0.80;;
74528;SDS011;63009;52.584;5.932;2023-07-20T08:08:24;3.67;;;1.20;;
74528;SDS011;63009;52.584;5.932;2023-07-20T08:10:50;3.53;;;1.10;;
74528;SDS011;63009;52.584;5.932;2023-07-20T08:13:17;2.22;;;0.80;;
74528;SDS011;63009;52.584;5.932;2023-07-20T08:15:51;1.85;;;0.90;;
74528;SDS011;63009;52.584;5.932;2023-07-20T08:18:17;3.63;;;1.20;;
74528;SDS011;63009;52.584;5.932;2023-07-20T08:20:45;1.80;;;0.90;;
74528;SDS011;63009;52.584;5.932;2023-07-20T08:23:11;2.47;;;1.00;;
74528;SDS011;63009;52.584;5.932;2023-07-20T08:28:15;4.35;;;1.20;;
74528;SDS011;63009;52.584;5.932;2023-07-20T08:30:45;5.18;;;1.33;;
74528;SDS011;63009;52.584;5.932;2023-07-20T08:33:13;3.95;;;1.20;;
74528;SDS011;63009;52.584;5.932;2023-07-20T08:35:39;5.03;;;1.38;;
74528;SDS011;63009;52.584;5.932;2023-07-20T08:38:05;3.17;;;1.23;;
74528;SDS011;63009;52.584;5.932;2023-07-20T08:40:31;2.75;;;1.10;;
74528;SDS011;63009;52.584;5.932;2023-07-20T08:42:57;3.10;;;1.23;;
74528;SDS011;63009;52.584;5.932;2023-07-20T08:45:24;3.00;;;1.13;;
74528;SDS011;63009;52.584;5.932;2023-07-20T08:47:52;4.18;;;1.30;;
74528;SDS011;63009;52.584;5.932;2023-07-20T08:50:19;4.28;;;1.20;;
74528;SDS011;63009;52.584;5.932;2023-07-20T08:52:46;4.60;;;1.40;;
74528;SDS011;63009;52.584;5.932;2023-07-20T08:55:12;4.70;;;1.30;;
74528;SDS011;63009;52.584;5.932;2023-07-20T08:57:38;7.00;;;1.60;;
74528;SDS011;63009;52.584;5.932;2023-07-20T09:00:06;6.70;;;1.60;;
74528;SDS011;63009;52.584;5.932;2023-07-20T09:02:38;6.82;;;1.70;;
74528;SDS011;63009;52.584;5.932;2023-07-20T09:05:06;6.40;;;1.67;;
74528;SDS011;63009;52.584;5.932;2023-07-20T09:07:33;11.73;;;1.83;;
74528;SDS011;63009;52.584;5.932;2023-07-20T09:10:00;5.13;;;1.70;;
74528;SDS011;63009;52.584;5.932;2023-07-20T09:12:30;7.15;;;1.50;;
74528;SDS011;63009;52.584;5.932;2023-07-20T09:14:57;5.68;;;1.60;;
74528;SDS011;63009;52.584;5.932;2023-07-20T09:17:22;8.57;;;1.60;;
74528;SDS011;63009;52.584;5.932;2023-07-20T09:19:51;5.38;;;1.50;;
74528;SDS011;63009;52.584;5.932;2023-07-20T09:22:16;3.47;;;1.23;;
74528;SDS011;63009;52.584;5.932;2023-07-20T09:24:42;3.95;;;1.30;;
74528;SDS011;63009;52.584;5.932;2023-07-20T09:27:08;3.28;;;1.20;;
74528;SDS011;63009;52.584;5.932;2023-07-20T09:29:34;2.85;;;1.05;;
74528;SDS011;63009;52.584;5.932;2023-07-20T09:32:01;3.42;;;1.10;;
74528;SDS011;63009;52.584;5.932;2023-07-20T09:34:28;4.05;;;1.13;;
74528;SDS011;63009;52.584;5.932;2023-07-20T09:36:56;3.47;;;1.00;;
74528;SDS011;63009;52.584;5.932;2023-07-20T09:39:23;2.70;;;1.00;;
74528;SDS011;63009;52.584;5.932;2023-07-20T09:41:48;3.75;;;1.10;;
74528;SDS011;63009;52.584;5.932;2023-07-20T09:44:14;3.70;;;1.20;;
74528;SDS011;63009;52.584;5.932;2023-07-20T09:46:47;2.35;;;0.93;;
74528;SDS011;63009;52.584;5.932;2023-07-20T09:49:13;2.47;;;0.98;;
74528;SDS011;63009;52.584;5.932;2023-07-20T09:51:39;4.72;;;1.10;;
74528;SDS011;63009;52.584;5.932;2023-07-20T09:54:05;6.30;;;1.10;;
74528;SDS011;63009;52.584;5.932;2023-07-20T09:56:31;3.63;;;1.00;;
74528;SDS011;63009;52.584;5.932;2023-07-20T09:58:58;4.90;;;1.20;;
74528;SDS011;63009;52.584;5.932;2023-07-20T10:01:23;2.67;;;0.95;;
74528;SDS011;63009;52.584;5.932;2023-07-20T10:03:52;4.28;;;1.10;;
74528;SDS011;63009;52.584;5.932;2023-07-20T10:06:20;5.10;;;1.13;;
74528;SDS011;63009;52.584;5.932;2023-07-20T10:08:49;4.80;;;1.10;;
74528;SDS011;63009;52.584;5.932;2023-07-20T10:11:21;4.50;;;1.15;;
74528;SDS011;63009;52.584;5.932;2023-07-20T10:13:50;3.70;;;1.10;;
74528;SDS011;63009;52.584;5.932;2023-07-20T10:16:22;2.67;;;1.10;;
74528;SDS011;63009;52.584;5.932;2023-07-20T10:21:42;3.70;;;1.25;;
74528;SDS011;63009;52.584;5.932;2023-07-20T10:24:16;4.75;;;1.42;;
74528;SDS011;63009;52.584;5.932;2023-07-20T10:26:43;5.25;;;1.30;;
74528;SDS011;63009;52.584;5.932;2023-07-20T10:29:08;5.75;;;1.60;;
74528;SDS011;63009;52.584;5.932;2023-07-20T10:31:34;3.13;;;1.10;;
74528;SDS011;63009;52.584;5.932;2023-07-20T10:34:02;3.53;;;1.35;;
74528;SDS011;63009;52.584;5.932;2023-07-20T10:36:28;5.60;;;1.60;;
74528;SDS011;63009;52.584;5.932;2023-07-20T10:38:54;3.85;;;1.45;;
74528;SDS011;63009;52.584;5.932;2023-07-20T10:41:31;4.53;;;1.42;;
74528;SDS011;63009;52.584;5.932;2023-07-20T10:44:03;6.32;;;1.52;;
74528;SDS011;63009;52.584;5.932;2023-07-20T10:49:04;3.95;;;1.20;;
74528;SDS011;63009;52.584;5.932;2023-07-20T10:51:31;4.10;;;1.25;;
74528;SDS011;63009;52.584;5.932;2023-07-20T10:56:32;3.92;;;1.30;;
74528;SDS011;63009;52.584;5.932;2023-07-20T10:58:58;2.75;;;1.10;;
74528;SDS011;63009;52.584;5.932;2023-07-20T11:01:27;4.00;;;1.02;;
74528;SDS011;63009;52.584;5.932;2023-07-20T11:03:57;3.25;;;1.00;;
74528;SDS011;63009;52.584;5.932;2023-07-20T11:08:55;1.60;;;0.83;;
74528;SDS011;63009;52.584;5.932;2023-07-20T11:11:25;2.90;;;0.90;;
74528;SDS011;63009;52.584;5.932;2023-07-20T11:13:57;3.70;;;1.00;;
74528;SDS011;63009;52.584;5.932;2023-07-20T11:19:03;2.80;;;1.00;;
74528;SDS011;63009;52.584;5.932;2023-07-20T11:21:30;2.83;;;1.10;;
74528;SDS011;63009;52.584;5.932;2023-07-20T11:24:02;3.33;;;1.00;;
74528;SDS011;63009;52.584;5.932;2023-07-20T11:26:28;2.97;;;1.00;;
74528;SDS011;63009;52.584;5.932;2023-07-20T11:28:53;2.53;;;0.80;;
74528;SDS011;63009;52.584;5.932;2023-07-20T11:31:19;3.43;;;1.10;;
74528;SDS011;63009;52.584;5.932;2023-07-20T11:33:44;1.87;;;0.87;;
74528;SDS011;63009;52.584;5.932;2023-07-20T11:36:10;1.77;;;0.70;;
74528;SDS011;63009;52.584;5.932;2023-07-20T11:38:36;1.50;;;0.80;;
74528;SDS011;63009;52.584;5.932;2023-07-20T11:41:04;2.05;;;0.82;;
74528;SDS011;63009;52.584;5.932;2023-07-20T11:43:30;1.45;;;0.70;;
74528;SDS011;63009;52.584;5.932;2023-07-20T11:45:55;2.90;;;0.80;;
74528;SDS011;63009;52.584;5.932;2023-07-20T11:48:21;1.60;;;0.90;;
74528;SDS011;63009;52.584;5.932;2023-07-20T11:50:47;1.58;;;0.77;;
74528;SDS011;63009;52.584;5.932;2023-07-20T11:53:12;3.63;;;1.17;;
74528;SDS011;63009;52.584;5.932;2023-07-20T11:55:39;3.90;;;0.90;;
74528;SDS011;63009;52.584;5.932;2023-07-20T11:58:06;3.40;;;1.00;;
74528;SDS011;63009;52.584;5.932;2023-07-20T12:00:32;2.05;;;0.95;;
74528;SDS011;63009;52.584;5.932;2023-07-20T12:02:59;3.03;;;1.00;;
74528;SDS011;63009;52.584;5.932;2023-07-20T12:05:25;2.00;;;0.80;;
74528;SDS011;63009;52.584;5.932;2023-07-20T12:07:51;1.90;;;0.82;;
74528;SDS011;63009;52.584;5.932;2023-07-20T12:10:22;3.53;;;1.08;;
74528;SDS011;63009;52.584;5.932;2023-07-20T12:12:49;2.30;;;0.80;;
74528;SDS011;63009;52.584;5.932;2023-07-20T12:15:15;2.47;;;0.90;;
74528;SDS011;63009;52.584;5.932;2023-07-20T12:17:55;2.13;;;0.77;;
74528;SDS011;63009;52.584;5.932;2023-07-20T12:20:34;3.17;;;0.93;;
74528;SDS011;63009;52.584;5.932;2023-07-20T12:25:33;2.70;;;0.88;;
74528;SDS011;63009;52.584;5.932;2023-07-20T12:28:01;1.50;;;0.70;;
74528;SDS011;63009;52.584;5.932;2023-07-20T12:32:54;1.23;;;0.63;;
74528;SDS011;63009;52.584;5.932;2023-07-20T12:35:20;1.08;;;0.60;;
74528;SDS011;63009;52.584;5.932;2023-07-20T12:37:45;0.82;;;0.60;;
74528;SDS011;63009;52.584;5.932;2023-07-20T12:40:14;1.50;;;0.60;;
74528;SDS011;63009;52.584;5.932;2023-07-20T12:42:39;1.85;;;0.70;;
74528;SDS011;63009;52.584;5.932;2023-07-20T12:45:05;1.83;;;0.80;;
74528;SDS011;63009;52.584;5.932;2023-07-20T12:47:31;2.08;;;0.75;;
74528;SDS011;63009;52.584;5.932;2023-07-20T12:49:56;1.37;;;0.70;;
74528;SDS011;63009;52.584;5.932;2023-07-20T12:52:21;3.63;;;1.00;;
74528;SDS011;63009;52.584;5.932;2023-07-20T12:54:47;2.60;;;0.87;;
74528;SDS011;63009;52.584;5.932;2023-07-20T12:57:12;2.03;;;0.80;;
74528;SDS011;63009;52.584;5.932;2023-07-20T12:59:37;2.00;;;0.80;;
74528;SDS011;63009;52.584;5.932;2023-07-20T13:02:02;1.83;;;0.70;;
74528;SDS011;63009;52.584;5.932;2023-07-20T13:04:28;3.60;;;1.33;;
74528;SDS011;63009;52.584;5.932;2023-07-20T13:06:53;9.03;;;1.63;;
74528;SDS011;63009;52.584;5.932;2023-07-20T13:09:19;2.47;;;0.95;;
74528;SDS011;63009;52.584;5.932;2023-07-20T13:11:44;1.50;;;0.70;;
74528;SDS011;63009;52.584;5.932;2023-07-20T13:14:10;1.88;;;0.80;;
74528;SDS011;63009;52.584;5.932;2023-07-20T13:16:36;1.48;;;0.77;;
74528;SDS011;63009;52.584;5.932;2023-07-20T13:19:02;1.95;;;0.88;;
74528;SDS011;63009;52.584;5.932;2023-07-20T13:21:27;2.38;;;0.80;;
74528;SDS011;63009;52.584;5.932;2023-07-20T13:23:53;1.92;;;0.75;;
74528;SDS011;63009;52.584;5.932;2023-07-20T13:26:18;1.75;;;0.80;;
74528;SDS011;63009;52.584;5.932;2023-07-20T13:28:44;3.67;;;1.10;;
74528;SDS011;63009;52.584;5.932;2023-07-20T13:31:09;3.33;;;1.10;;
74528;SDS011;63009;52.584;5.932;2023-07-20T13:33:35;4.32;;;1.20;;
74528;SDS011;63009;52.584;5.932;2023-07-20T13:36:01;3.47;;;1.20;;
74528;SDS011;63009;52.584;5.932;2023-07-20T13:38:26;3.63;;;1.10;;
74528;SDS011;63009;52.584;5.932;2023-07-20T13:40:52;3.25;;;1.17;;
74528;SDS011;63009;52.584;5.932;2023-07-20T13:43:17;3.00;;;0.93;;
74528;SDS011;63009;52.584;5.932;2023-07-20T13:45:42;2.93;;;1.20;;
74528;SDS011;63009;52.584;5.932;2023-07-20T13:48:08;5.35;;;1.30;;
74528;SDS011;63009;52.584;5.932;2023-07-20T13:50:33;2.60;;;1.02;;
74528;SDS011;63009;52.584;5.932;2023-07-20T13:52:58;1.53;;;0.90;;
74528;SDS011;63009;52.584;5.932;2023-07-20T13:55:24;2.80;;;1.00;;
74528;SDS011;63009;52.584;5.932;2023-07-20T13:57:49;5.27;;;1.30;;
74528;SDS011;63009;52.584;5.932;2023-07-20T14:00:15;1.80;;;1.00;;
74528;SDS011;63009;52.584;5.932;2023-07-20T14:02:41;3.78;;;1.10;;
74528;SDS011;63009;52.584;5.932;2023-07-20T14:05:06;3.27;;;1.00;;
74528;SDS011;63009;52.584;5.932;2023-07-20T14:07:33;2.17;;;0.98;;
74528;SDS011;63009;52.584;5.932;2023-07-20T14:09:58;2.60;;;1.10;;
74528;SDS011;63009;52.584;5.932;2023-07-20T14:12:24;1.70;;;0.93;;
74528;SDS011;63009;52.584;5.932;2023-07-20T14:14:49;4.22;;;1.13;;
74528;SDS011;63009;52.584;5.932;2023-07-20T14:17:14;1.77;;;0.90;;
74528;SDS011;63009;52.584;5.932;2023-07-20T14:19:40;1.55;;;0.80;;
74528;SDS011;63009;52.584;5.932;2023-07-20T14:22:05;3.10;;;1.20;;
74528;SDS011;63009;52.584;5.932;2023-07-20T14:24:31;2.50;;;0.97;;
74528;SDS011;63009;52.584;5.932;2023-07-20T14:26:56;3.70;;;1.13;;
74528;SDS011;63009;52.584;5.932;2023-07-20T14:29:21;3.10;;;1.17;;
74528;SDS011;63009;52.584;5.932;2023-07-20T14:31:47;4.43;;;1.42;;
74528;SDS011;63009;52.584;5.932;2023-07-20T14:34:15;3.60;;;1.20;;
74528;SDS011;63009;52.584;5.932;2023-07-20T14:36:41;2.97;;;1.10;;
74528;SDS011;63009;52.584;5.932;2023-07-20T14:39:07;4.53;;;1.57;;
74528;SDS011;63009;52.584;5.932;2023-07-20T14:41:32;3.87;;;1.30;;
74528;SDS011;63009;52.584;5.932;2023-07-20T14:43:57;3.57;;;1.40;;
74528;SDS011;63009;52.584;5.932;2023-07-20T14:46:22;3.40;;;1.30;;
74528;SDS011;63009;52.584;5.932;2023-07-20T14:48:48;4.50;;;1.40;;
74528;SDS011;63009;52.584;5.932;2023-07-20T14:51:13;5.65;;;1.60;;
74528;SDS011;63009;52.584;5.932;2023-07-20T14:53:38;7.40;;;1.93;;
74528;SDS011;63009;52.584;5.932;2023-07-20T14:56:04;4.50;;;1.60;;
74528;SDS011;63009;52.584;5.932;2023-07-20T14:58:29;7.13;;;1.70;;
74528;SDS011;63009;52.584;5.932;2023-07-20T15:00:54;5.18;;;1.50;;
74528;SDS011;63009;52.584;5.932;2023-07-20T15:03:20;6.30;;;1.70;;
74528;SDS011;63009;52.584;5.932;2023-07-20T15:05:45;3.42;;;1.20;;
74528;SDS011;63009;52.584;5.932;2023-07-20T15:08:11;4.80;;;1.40;;
74528;SDS011;63009;52.584;5.932;2023-07-20T15:10:36;3.10;;;1.20;;
74528;SDS011;63009;52.584;5.932;2023-07-20T15:13:01;4.23;;;1.20;;